sensor_id;sensor_type;location;lat;lon;timestamp;temperature;humidity
23156;DHT22;11746;50.876;4.246;2023-07-29T00:00:53;19.20;99.90
23156;DHT22;11746;50.876;4.246;2023-07-29T00:03:20;19.10;99.90
23156;DHT22;11746;50.876;4.246;2023-07-29T00:05:48;19.10;99.90
23156;DHT22;11746;50.876;4.246;2023-07-29T00:08:14;19.00;99.90
23156;DHT22;11746;50.876;4.246;2023-07-29T00:10:40;18.90;99.90
23156;DHT22;11746;50.876;4.246;2023-07-29T00:13:06;18.90;99.90
23156;DHT22;11746;50.876;4.246;2023-07-29T00:15:32;18.90;99.90
23156;DHT22;11746;50.876;4.246;2023-07-29T00:17:58;18.80;99.90
23156;DHT22;11746;50.876;4.246;2023-07-29T00:20:24;18.80;99.90
23156;DHT22;11746;50.876;4.246;2023-07-29T00:22:50;18.70;99.90
23156;DHT22;11746;50.876;4.246;2023-07-29T00:25:19;18.70;99.90
23156;DHT22;11746;50.876;4.246;2023-07-29T00:27:45;18.70;99.90
23156;DHT22;11746;50.876;4.246;2023-07-29T00:30:13;18.80;99.90
23156;DHT22;11746;50.876;4.246;2023-07-29T00:32:39;18.80;99.90
23156;DHT22;11746;50.876;4.246;2023-07-29T00:35:05;18.70;99.90
23156;DHT22;11746;50.876;4.246;2023-07-29T00:37:31;18.60;99.90
23156;DHT22;11746;50.876;4.246;2023-07-29T00:39:57;18.70;99.90
23156;DHT22;11746;50.876;4.246;2023-07-29T00:42:24;18.70;99.90
23156;DHT22;11746;50.876;4.246;2023-07-29T00:44:50;18.80;99.90
23156;DHT22;11746;50.876;4.246;2023-07-29T00:47:16;18.60;99.90
23156;DHT22;11746;50.876;4.246;2023-07-29T00:49:45;18.90;99.90
23156;DHT22;11746;50.876;4.246;2023-07-29T00:52:12;18.80;99.90
23156;DHT22;11746;50.876;4.246;2023-07-29T00:54:42;18.80;99.90
23156;DHT22;11746;50.876;4.246;2023-07-29T00:57:09;19.00;99.90
23156;DHT22;11746;50.876;4.246;2023-07-29T00:59:36;19.00;99.90
23156;DHT22;11746;50.876;4.246;2023-07-29T01:02:02;19.00;99.90
23156;DHT22;11746;50.876;4.246;2023-07-29T01:04:28;18.90;99.90
23156;DHT22;11746;50.876;4.246;2023-07-29T01:12:52;18.70;99.90
23156;DHT22;11746;50.876;4.246;2023-07-29T01:15:30;18.70;99.90
23156;DHT22;11746;50.876;4.246;2023-07-29T01:18:06;18.80;99.90
23156;DHT22;11746;50.876;4.246;2023-07-29T01:20:38;18.70;99.90
23156;DHT22;11746;50.876;4.246;2023-07-29T01:23:05;18.80;99.90
23156;DHT22;11746;50.876;4.246;2023-07-29T01:25:31;18.70;99.90
23156;DHT22;11746;50.876;4.246;2023-07-29T01:27:57;18.60;99.90
23156;DHT22;11746;50.876;4.246;2023-07-29T01:30:30;18.60;99.90
23156;DHT22;11746;50.876;4.246;2023-07-29T01:33:18;18.60;99.90
23156;DHT22;11746;50.876;4.246;2023-07-29T01:35:50;18.60;99.90
23156;DHT22;11746;50.876;4.246;2023-07-29T01:38:28;18.70;99.90
23156;DHT22;11746;50.876;4.246;2023-07-29T01:40:59;18.60;99.90
23156;DHT22;11746;50.876;4.246;2023-07-29T01:43:28;18.60;99.90
23156;DHT22;11746;50.876;4.246;2023-07-29T01:45:54;18.60;99.90
23156;DHT22;11746;50.876;4.246;2023-07-29T01:48:20;18.60;99.90
23156;DHT22;11746;50.876;4.246;2023-07-29T01:50:46;18.70;99.90
23156;DHT22;11746;50.876;4.246;2023-07-29T01:53:12;18.70;99.90
23156;DHT22;11746;50.876;4.246;2023-07-29T01:55:39;18.50;99.90
23156;DHT22;11746;50.876;4.246;2023-07-29T01:58:07;18.40;99.90
23156;DHT22;11746;50.876;4.246;2023-07-29T02:00:32;18.30;99.90
23156;DHT22;11746;50.876;4.246;2023-07-29T02:02:58;18.50;99.90
23156;DHT22;11746;50.876;4.246;2023-07-29T02:05:24;18.60;99.90
23156;DHT22;11746;50.876;4.246;2023-07-29T02:07:50;18.60;99.90
23156;DHT22;11746;50.876;4.246;2023-07-29T02:10:16;18.60;99.90
23156;DHT22;11746;50.876;4.246;2023-07-29T02:12:42;18.60;99.90
23156;DHT22;11746;50.876;4.246;2023-07-29T02:15:08;18.60;99.90
23156;DHT22;11746;50.876;4.246;2023-07-29T02:17:35;18.40;99.90
23156;DHT22;11746;50.876;4.246;2023-07-29T02:20:01;18.20;99.90
23156;DHT22;11746;50.876;4.246;2023-07-29T02:22:27;18.20;99.90
23156;DHT22;11746;50.876;4.246;2023-07-29T02:24:53;18.00;99.90
23156;DHT22;11746;50.876;4.246;2023-07-29T02:27:19;18.00;99.90
23156;DHT22;11746;50.876;4.246;2023-07-29T02:29:44;18.00;99.90
23156;DHT22;11746;50.876;4.246;2023-07-29T02:32:10;18.10;99.90
23156;DHT22;11746;50.876;4.246;2023-07-29T02:34:36;18.00;99.90
23156;DHT22;11746;50.876;4.246;2023-07-29T02:37:02;18.00;99.90
23156;DHT22;11746;50.876;4.246;2023-07-29T02:39:28;18.20;99.90
23156;DHT22;11746;50.876;4.246;2023-07-29T02:41:54;18.30;99.90
23156;DHT22;11746;50.876;4.246;2023-07-29T02:44:21;18.40;99.90
23156;DHT22;11746;50.876;4.246;2023-07-29T02:46:47;18.20;99.90
23156;DHT22;11746;50.876;4.246;2023-07-29T02:49:13;18.20;99.90
23156;DHT22;11746;50.876;4.246;2023-07-29T02:51:39;18.20;99.90
23156;DHT22;11746;50.876;4.246;2023-07-29T02:54:05;18.20;99.90
23156;DHT22;11746;50.876;4.246;2023-07-29T02:56:31;18.30;99.90
23156;DHT22;11746;50.876;4.246;2023-07-29T02:58:56;18.30;99.90
23156;DHT22;11746;50.876;4.246;2023-07-29T03:01:23;18.40;99.90
23156;DHT22;11746;50.876;4.246;2023-07-29T03:03:51;18.40;99.90
23156;DHT22;11746;50.876;4.246;2023-07-29T03:06:17;18.30;99.90
23156;DHT22;11746;50.876;4.246;2023-07-29T03:08:42;18.20;99.90
23156;DHT22;11746;50.876;4.246;2023-07-29T03:11:13;18.20;99.90
23156;DHT22;11746;50.876;4.246;2023-07-29T03:13:39;18.10;99.90
23156;DHT22;11746;50.876;4.246;2023-07-29T03:16:10;18.20;99.90
23156;DHT22;11746;50.876;4.246;2023-07-29T03:18:36;18.20;99.90
23156;DHT22;11746;50.876;4.246;2023-07-29T03:21:03;18.10;99.90
23156;DHT22;11746;50.876;4.246;2023-07-29T03:23:30;18.30;99.90
23156;DHT22;11746;50.876;4.246;2023-07-29T03:25:57;18.30;99.90
23156;DHT22;11746;50.876;4.246;2023-07-29T03:28:29;18.20;99.90
23156;DHT22;11746;50.876;4.246;2023-07-29T03:30:55;18.00;99.90
23156;DHT22;11746;50.876;4.246;2023-07-29T03:33:22;18.00;99.90
23156;DHT22;11746;50.876;4.246;2023-07-29T03:35:47;17.90;99.90
23156;DHT22;11746;50.876;4.246;2023-07-29T03:38:13;17.90;99.90
23156;DHT22;11746;50.876;4.246;2023-07-29T03:40:40;17.80;99.90
23156;DHT22;11746;50.876;4.246;2023-07-29T03:43:07;17.70;99.90
23156;DHT22;11746;50.876;4.246;2023-07-29T03:45:33;17.60;99.90
23156;DHT22;11746;50.876;4.246;2023-07-29T03:48:02;17.70;99.90
23156;DHT22;11746;50.876;4.246;2023-07-29T03:50:28;17.80;99.90
23156;DHT22;11746;50.876;4.246;2023-07-29T03:52:55;17.80;99.90
23156;DHT22;11746;50.876;4.246;2023-07-29T03:55:21;17.70;99.90
23156;DHT22;11746;50.876;4.246;2023-07-29T03:57:47;17.70;99.90
23156;DHT22;11746;50.876;4.246;2023-07-29T04:00:13;17.70;99.90
23156;DHT22;11746;50.876;4.246;2023-07-29T04:02:39;17.80;99.90
23156;DHT22;11746;50.876;4.246;2023-07-29T04:05:06;17.80;99.90
23156;DHT22;11746;50.876;4.246;2023-07-29T04:07:34;17.90;99.90
23156;DHT22;11746;50.876;4.246;2023-07-29T04:10:01;17.80;99.90
23156;DHT22;11746;50.876;4.246;2023-07-29T04:12:28;17.70;99.90
23156;DHT22;11746;50.876;4.246;2023-07-29T04:14:54;17.70;99.90
23156;DHT22;11746;50.876;4.246;2023-07-29T04:17:19;17.60;99.90
23156;DHT22;11746;50.876;4.246;2023-07-29T04:19:45;17.60;99.90
23156;DHT22;11746;50.876;4.246;2023-07-29T04:22:11;17.50;99.90
23156;DHT22;11746;50.876;4.246;2023-07-29T04:24:37;17.60;99.90
23156;DHT22;11746;50.876;4.246;2023-07-29T04:27:04;17.70;99.90
23156;DHT22;11746;50.876;4.246;2023-07-29T04:29:30;17.90;99.90
23156;DHT22;11746;50.876;4.246;2023-07-29T04:31:56;17.80;99.90
23156;DHT22;11746;50.876;4.246;2023-07-29T04:34:22;17.70;99.90
23156;DHT22;11746;50.876;4.246;2023-07-29T04:36:48;17.80;99.90
23156;DHT22;11746;50.876;4.246;2023-07-29T04:39:14;17.80;99.90
23156;DHT22;11746;50.876;4.246;2023-07-29T04:41:40;17.70;99.90
23156;DHT22;11746;50.876;4.246;2023-07-29T04:44:06;17.70;99.90
23156;DHT22;11746;50.876;4.246;2023-07-29T04:46:33;17.60;99.90
23156;DHT22;11746;50.876;4.246;2023-07-29T04:48:59;17.60;99.90
23156;DHT22;11746;50.876;4.246;2023-07-29T04:51:25;17.60;99.90
23156;DHT22;11746;50.876;4.246;2023-07-29T04:53:51;17.70;99.90
23156;DHT22;11746;50.876;4.246;2023-07-29T04:56:17;17.80;99.90
23156;DHT22;11746;50.876;4.246;2023-07-29T04:58:43;17.60;99.90
23156;DHT22;11746;50.876;4.246;2023-07-29T05:01:08;17.70;99.90
23156;DHT22;11746;50.876;4.246;2023-07-29T05:03:35;17.70;99.90
23156;DHT22;11746;50.876;4.246;2023-07-29T05:06:02;17.80;99.90
23156;DHT22;11746;50.876;4.246;2023-07-29T05:08:28;17.80;99.90
23156;DHT22;11746;50.876;4.246;2023-07-29T05:10:54;17.70;99.90
23156;DHT22;11746;50.876;4.246;2023-07-29T05:13:21;17.70;99.90
23156;DHT22;11746;50.876;4.246;2023-07-29T05:15:48;17.80;99.90
23156;DHT22;11746;50.876;4.246;2023-07-29T05:18:15;17.90;99.90
23156;DHT22;11746;50.876;4.246;2023-07-29T05:20:41;17.90;99.90
23156;DHT22;11746;50.876;4.246;2023-07-29T05:23:07;17.80;99.90
23156;DHT22;11746;50.876;4.246;2023-07-29T05:25:33;17.80;99.90
23156;DHT22;11746;50.876;4.246;2023-07-29T05:28:02;17.80;99.90
23156;DHT22;11746;50.876;4.246;2023-07-29T05:30:29;17.80;99.90
23156;DHT22;11746;50.876;4.246;2023-07-29T05:33:03;17.90;99.90
23156;DHT22;11746;50.876;4.246;2023-07-29T05:35:29;18.10;99.90
23156;DHT22;11746;50.876;4.246;2023-07-29T05:37:55;18.20;99.90
23156;DHT22;11746;50.876;4.246;2023-07-29T05:40:20;18.10;99.90
23156;DHT22;11746;50.876;4.246;2023-07-29T05:42:46;18.10;99.90
23156;DHT22;11746;50.876;4.246;2023-07-29T05:45:13;18.20;99.90
23156;DHT22;11746;50.876;4.246;2023-07-29T05:47:39;18.30;99.90
23156;DHT22;11746;50.876;4.246;2023-07-29T05:50:05;18.30;99.90
23156;DHT22;11746;50.876;4.246;2023-07-29T05:52:32;18.30;99.90
23156;DHT22;11746;50.876;4.246;2023-07-29T05:54:57;18.20;99.90
23156;DHT22;11746;50.876;4.246;2023-07-29T05:57:23;18.30;99.90
23156;DHT22;11746;50.876;4.246;2023-07-29T05:59:49;18.40;99.90
23156;DHT22;11746;50.876;4.246;2023-07-29T06:02:15;18.40;99.90
23156;DHT22;11746;50.876;4.246;2023-07-29T06:04:41;18.40;99.90
23156;DHT22;11746;50.876;4.246;2023-07-29T06:07:07;18.50;99.90
23156;DHT22;11746;50.876;4.246;2023-07-29T06:09:33;18.40;99.90
23156;DHT22;11746;50.876;4.246;2023-07-29T06:11:59;18.60;99.90
23156;DHT22;11746;50.876;4.246;2023-07-29T06:14:25;18.70;99.90
23156;DHT22;11746;50.876;4.246;2023-07-29T06:16:51;18.90;99.90
23156;DHT22;11746;50.876;4.246;2023-07-29T06:19:19;19.00;99.90
23156;DHT22;11746;50.876;4.246;2023-07-29T06:21:45;19.10;99.90
23156;DHT22;11746;50.876;4.246;2023-07-29T06:24:11;19.10;99.90
23156;DHT22;11746;50.876;4.246;2023-07-29T06:26:37;19.20;99.90
23156;DHT22;11746;50.876;4.246;2023-07-29T06:29:03;19.20;99.90
23156;DHT22;11746;50.876;4.246;2023-07-29T06:31:29;19.40;99.90
23156;DHT22;11746;50.876;4.246;2023-07-29T06:33:55;19.30;99.90
23156;DHT22;11746;50.876;4.246;2023-07-29T06:36:21;19.20;99.90
23156;DHT22;11746;50.876;4.246;2023-07-29T06:38:47;19.20;99.90
23156;DHT22;11746;50.876;4.246;2023-07-29T06:41:13;19.30;99.90
23156;DHT22;11746;50.876;4.246;2023-07-29T06:43:40;19.40;99.90
23156;DHT22;11746;50.876;4.246;2023-07-29T06:46:06;19.50;99.90
23156;DHT22;11746;50.876;4.246;2023-07-29T06:48:32;19.50;99.90
23156;DHT22;11746;50.876;4.246;2023-07-29T06:50:58;19.50;99.90
23156;DHT22;11746;50.876;4.246;2023-07-29T06:53:27;19.30;99.90
23156;DHT22;11746;50.876;4.246;2023-07-29T06:55:53;19.30;99.90
23156;DHT22;11746;50.876;4.246;2023-07-29T06:58:19;19.20;99.90
23156;DHT22;11746;50.876;4.246;2023-07-29T07:00:45;19.20;99.90
23156;DHT22;11746;50.876;4.246;2023-07-29T07:03:11;19.20;99.90
23156;DHT22;11746;50.876;4.246;2023-07-29T07:05:37;19.40;99.90
23156;DHT22;11746;50.876;4.246;2023-07-29T07:08:03;19.40;99.90
23156;DHT22;11746;50.876;4.246;2023-07-29T07:10:29;19.30;99.90
23156;DHT22;11746;50.876;4.246;2023-07-29T07:12:55;19.30;99.90
23156;DHT22;11746;50.876;4.246;2023-07-29T07:15:21;19.40;99.90
23156;DHT22;11746;50.876;4.246;2023-07-29T07:17:46;19.30;99.90
23156;DHT22;11746;50.876;4.246;2023-07-29T07:20:12;19.30;99.90
23156;DHT22;11746;50.876;4.246;2023-07-29T07:22:38;19.20;99.90
23156;DHT22;11746;50.876;4.246;2023-07-29T07:25:05;19.20;99.90
23156;DHT22;11746;50.876;4.246;2023-07-29T07:27:31;19.20;99.90
23156;DHT22;11746;50.876;4.246;2023-07-29T07:29:57;19.30;99.90
23156;DHT22;11746;50.876;4.246;2023-07-29T07:32:23;19.30;99.90
23156;DHT22;11746;50.876;4.246;2023-07-29T07:34:49;19.40;99.90
23156;DHT22;11746;50.876;4.246;2023-07-29T07:37:14;19.40;99.90
23156;DHT22;11746;50.876;4.246;2023-07-29T07:39:40;19.40;99.90
23156;DHT22;11746;50.876;4.246;2023-07-29T07:42:06;19.50;99.90
23156;DHT22;11746;50.876;4.246;2023-07-29T07:44:32;19.60;99.90
23156;DHT22;11746;50.876;4.246;2023-07-29T07:46:58;19.60;99.90
23156;DHT22;11746;50.876;4.246;2023-07-29T07:49:23;19.80;99.90
23156;DHT22;11746;50.876;4.246;2023-07-29T07:51:49;19.90;99.90
23156;DHT22;11746;50.876;4.246;2023-07-29T07:54:15;19.90;99.90
23156;DHT22;11746;50.876;4.246;2023-07-29T07:56:42;20.00;99.90
23156;DHT22;11746;50.876;4.246;2023-07-29T07:59:08;20.10;99.90
23156;DHT22;11746;50.876;4.246;2023-07-29T08:01:38;20.00;99.90
23156;DHT22;11746;50.876;4.246;2023-07-29T08:04:04;20.10;99.90
23156;DHT22;11746;50.876;4.246;2023-07-29T08:06:31;20.20;99.90
23156;DHT22;11746;50.876;4.246;2023-07-29T08:08:57;20.30;99.90
23156;DHT22;11746;50.876;4.246;2023-07-29T08:11:23;20.40;99.90
23156;DHT22;11746;50.876;4.246;2023-07-29T08:13:49;20.50;99.90
23156;DHT22;11746;50.876;4.246;2023-07-29T08:16:15;20.60;99.90
23156;DHT22;11746;50.876;4.246;2023-07-29T08:18:41;20.50;99.90
23156;DHT22;11746;50.876;4.246;2023-07-29T08:21:07;20.60;99.90
23156;DHT22;11746;50.876;4.246;2023-07-29T08:23:34;20.60;99.90
23156;DHT22;11746;50.876;4.246;2023-07-29T08:26:03;20.70;99.90
23156;DHT22;11746;50.876;4.246;2023-07-29T08:28:35;20.80;99.90
23156;DHT22;11746;50.876;4.246;2023-07-29T08:31:02;20.90;99.90
23156;DHT22;11746;50.876;4.246;2023-07-29T08:33:28;20.80;99.90
23156;DHT22;11746;50.876;4.246;2023-07-29T08:35:55;20.80;99.90
23156;DHT22;11746;50.876;4.246;2023-07-29T08:38:21;20.70;99.90
23156;DHT22;11746;50.876;4.246;2023-07-29T08:41:10;20.70;99.90
23156;DHT22;11746;50.876;4.246;2023-07-29T08:43:43;20.80;99.90
23156;DHT22;11746;50.876;4.246;2023-07-29T08:46:09;20.90;99.90
23156;DHT22;11746;50.876;4.246;2023-07-29T08:48:43;21.10;99.90
23156;DHT22;11746;50.876;4.246;2023-07-29T08:51:10;21.50;99.90
23156;DHT22;11746;50.876;4.246;2023-07-29T08:53:37;21.60;99.90
23156;DHT22;11746;50.876;4.246;2023-07-29T08:56:03;21.80;99.90
23156;DHT22;11746;50.876;4.246;2023-07-29T08:58:30;21.80;99.90
23156;DHT22;11746;50.876;4.246;2023-07-29T09:00:56;22.10;99.90
23156;DHT22;11746;50.876;4.246;2023-07-29T09:03:22;22.20;99.90
23156;DHT22;11746;50.876;4.246;2023-07-29T09:05:48;21.70;99.90
23156;DHT22;11746;50.876;4.246;2023-07-29T09:08:15;21.40;99.90
23156;DHT22;11746;50.876;4.246;2023-07-29T09:10:41;21.60;99.90
23156;DHT22;11746;50.876;4.246;2023-07-29T09:13:07;21.50;99.90
23156;DHT22;11746;50.876;4.246;2023-07-29T09:15:35;21.80;99.90
23156;DHT22;11746;50.876;4.246;2023-07-29T09:18:14;22.00;99.90
23156;DHT22;11746;50.876;4.246;2023-07-29T09:20:41;22.00;99.90
23156;DHT22;11746;50.876;4.246;2023-07-29T09:23:09;22.00;99.90
23156;DHT22;11746;50.876;4.246;2023-07-29T09:25:39;21.90;99.90
23156;DHT22;11746;50.876;4.246;2023-07-29T09:28:10;21.80;99.90
23156;DHT22;11746;50.876;4.246;2023-07-29T09:30:41;21.90;99.90
23156;DHT22;11746;50.876;4.246;2023-07-29T09:33:08;21.90;99.90
23156;DHT22;11746;50.876;4.246;2023-07-29T09:35:36;22.00;99.90
23156;DHT22;11746;50.876;4.246;2023-07-29T09:38:04;22.10;99.90
23156;DHT22;11746;50.876;4.246;2023-07-29T09:40:37;22.10;99.90
23156;DHT22;11746;50.876;4.246;2023-07-29T09:43:04;22.20;99.90
23156;DHT22;11746;50.876;4.246;2023-07-29T09:45:30;22.10;99.90
23156;DHT22;11746;50.876;4.246;2023-07-29T09:47:58;21.90;99.90
23156;DHT22;11746;50.876;4.246;2023-07-29T09:50:25;22.00;99.90
23156;DHT22;11746;50.876;4.246;2023-07-29T09:52:52;22.00;99.90
23156;DHT22;11746;50.876;4.246;2023-07-29T09:55:21;22.10;99.90
23156;DHT22;11746;50.876;4.246;2023-07-29T09:57:47;22.60;99.90
23156;DHT22;11746;50.876;4.246;2023-07-29T10:00:13;22.60;99.90
23156;DHT22;11746;50.876;4.246;2023-07-29T10:02:40;22.60;99.90
23156;DHT22;11746;50.876;4.246;2023-07-29T10:05:07;22.50;99.90
23156;DHT22;11746;50.876;4.246;2023-07-29T10:07:38;22.40;99.90
23156;DHT22;11746;50.876;4.246;2023-07-29T10:10:05;22.60;99.90
23156;DHT22;11746;50.876;4.246;2023-07-29T10:12:32;22.50;99.90
23156;DHT22;11746;50.876;4.246;2023-07-29T10:15:05;22.80;99.90
23156;DHT22;11746;50.876;4.246;2023-07-29T10:17:34;23.10;99.90
23156;DHT22;11746;50.876;4.246;2023-07-29T10:20:00;23.10;99.90
23156;DHT22;11746;50.876;4.246;2023-07-29T10:22:38;23.10;99.90
23156;DHT22;11746;50.876;4.246;2023-07-29T10:25:08;23.10;99.90
23156;DHT22;11746;50.876;4.246;2023-07-29T10:27:44;23.30;99.90
23156;DHT22;11746;50.876;4.246;2023-07-29T10:30:11;23.50;99.90
23156;DHT22;11746;50.876;4.246;2023-07-29T10:32:41;23.30;99.90
23156;DHT22;11746;50.876;4.246;2023-07-29T10:35:08;23.40;99.90
23156;DHT22;11746;50.876;4.246;2023-07-29T10:37:34;23.00;99.90
23156;DHT22;11746;50.876;4.246;2023-07-29T10:40:00;23.00;99.90
23156;DHT22;11746;50.876;4.246;2023-07-29T10:42:31;23.40;99.90
23156;DHT22;11746;50.876;4.246;2023-07-29T10:44:57;23.50;99.90
23156;DHT22;11746;50.876;4.246;2023-07-29T10:47:26;23.60;99.90
23156;DHT22;11746;50.876;4.246;2023-07-29T10:49:57;23.80;99.90
23156;DHT22;11746;50.876;4.246;2023-07-29T10:52:43;24.20;99.90
23156;DHT22;11746;50.876;4.246;2023-07-29T10:55:32;23.90;99.90
23156;DHT22;11746;50.876;4.246;2023-07-29T10:58:13;23.80;99.90
23156;DHT22;11746;50.876;4.246;2023-07-29T11:00:43;23.50;99.90
23156;DHT22;11746;50.876;4.246;2023-07-29T11:03:09;23.00;99.90
23156;DHT22;11746;50.876;4.246;2023-07-29T11:10:44;20.90;99.90
23156;DHT22;11746;50.876;4.246;2023-07-29T11:13:22;20.60;99.90
23156;DHT22;11746;50.876;4.246;2023-07-29T11:15:49;20.40;99.90
23156;DHT22;11746;50.876;4.246;2023-07-29T11:18:16;20.40;99.90
23156;DHT22;11746;50.876;4.246;2023-07-29T11:20:42;20.20;99.90
23156;DHT22;11746;50.876;4.246;2023-07-29T11:23:10;20.30;99.90
23156;DHT22;11746;50.876;4.246;2023-07-29T11:25:36;20.10;99.90
23156;DHT22;11746;50.876;4.246;2023-07-29T11:28:03;20.30;99.90
23156;DHT22;11746;50.876;4.246;2023-07-29T11:30:34;20.40;99.90
23156;DHT22;11746;50.876;4.246;2023-07-29T11:33:00;20.70;99.90
23156;DHT22;11746;50.876;4.246;2023-07-29T11:35:26;20.80;99.90
23156;DHT22;11746;50.876;4.246;2023-07-29T11:37:54;20.90;99.90
23156;DHT22;11746;50.876;4.246;2023-07-29T11:40:21;21.10;99.90
23156;DHT22;11746;50.876;4.246;2023-07-29T11:42:51;21.20;99.90
23156;DHT22;11746;50.876;4.246;2023-07-29T11:45:17;21.40;99.90
23156;DHT22;11746;50.876;4.246;2023-07-29T11:47:43;21.30;99.90
23156;DHT22;11746;50.876;4.246;2023-07-29T11:50:10;21.50;99.90
23156;DHT22;11746;50.876;4.246;2023-07-29T11:52:37;21.30;99.90
23156;DHT22;11746;50.876;4.246;2023-07-29T11:55:05;21.20;99.90
23156;DHT22;11746;50.876;4.246;2023-07-29T11:57:34;21.10;99.90
23156;DHT22;11746;50.876;4.246;2023-07-29T12:00:08;20.80;99.90
23156;DHT22;11746;50.876;4.246;2023-07-29T12:02:43;20.70;99.90
23156;DHT22;11746;50.876;4.246;2023-07-29T12:05:14;20.60;99.90
23156;DHT22;11746;50.876;4.246;2023-07-29T12:07:42;20.50;99.90
23156;DHT22;11746;50.876;4.246;2023-07-29T12:10:10;20.30;99.90
23156;DHT22;11746;50.876;4.246;2023-07-29T12:12:50;20.30;99.90
23156;DHT22;11746;50.876;4.246;2023-07-29T12:15:26;20.20;99.90
23156;DHT22;11746;50.876;4.246;2023-07-29T12:17:54;20.30;99.90
23156;DHT22;11746;50.876;4.246;2023-07-29T12:20:22;20.60;99.90
23156;DHT22;11746;50.876;4.246;2023-07-29T12:23:00;21.10;99.90
23156;DHT22;11746;50.876;4.246;2023-07-29T12:25:31;21.60;99.90
23156;DHT22;11746;50.876;4.246;2023-07-29T12:28:05;21.70;99.90
23156;DHT22;11746;50.876;4.246;2023-07-29T12:30:32;21.60;99.90
23156;DHT22;11746;50.876;4.246;2023-07-29T12:32:58;21.70;99.90
23156;DHT22;11746;50.876;4.246;2023-07-29T12:35:25;21.70;99.90
23156;DHT22;11746;50.876;4.246;2023-07-29T12:37:59;21.80;99.90
23156;DHT22;11746;50.876;4.246;2023-07-29T12:40:26;21.80;99.90
23156;DHT22;11746;50.876;4.246;2023-07-29T12:42:53;22.00;99.90
23156;DHT22;11746;50.876;4.246;2023-07-29T12:45:19;22.10;99.90
23156;DHT22;11746;50.876;4.246;2023-07-29T12:47:47;22.50;99.90
23156;DHT22;11746;50.876;4.246;2023-07-29T12:50:13;22.90;99.90
23156;DHT22;11746;50.876;4.246;2023-07-29T12:52:38;23.20;99.90
23156;DHT22;11746;50.876;4.246;2023-07-29T12:55:05;23.40;99.90
23156;DHT22;11746;50.876;4.246;2023-07-29T12:57:34;23.20;99.90
23156;DHT22;11746;50.876;4.246;2023-07-29T13:00:00;23.10;99.90
23156;DHT22;11746;50.876;4.246;2023-07-29T13:02:26;23.40;99.90
23156;DHT22;11746;50.876;4.246;2023-07-29T13:04:52;23.50;99.90
23156;DHT22;11746;50.876;4.246;2023-07-29T13:07:18;23.50;99.90
23156;DHT22;11746;50.876;4.246;2023-07-29T13:09:44;23.70;99.90
23156;DHT22;11746;50.876;4.246;2023-07-29T13:12:09;23.80;99.90
23156;DHT22;11746;50.876;4.246;2023-07-29T13:14:35;23.90;99.90
23156;DHT22;11746;50.876;4.246;2023-07-29T13:17:01;23.90;99.90
23156;DHT22;11746;50.876;4.246;2023-07-29T13:19:27;24.30;99.90
23156;DHT22;11746;50.876;4.246;2023-07-29T13:21:53;24.20;99.90
23156;DHT22;11746;50.876;4.246;2023-07-29T13:24:19;23.90;99.90
23156;DHT22;11746;50.876;4.246;2023-07-29T13:26:45;23.70;99.90
23156;DHT22;11746;50.876;4.246;2023-07-29T13:29:11;24.00;99.90
23156;DHT22;11746;50.876;4.246;2023-07-29T13:31:36;24.30;99.90
23156;DHT22;11746;50.876;4.246;2023-07-29T13:34:02;24.40;99.90
23156;DHT22;11746;50.876;4.246;2023-07-29T13:36:28;24.30;99.90
23156;DHT22;11746;50.876;4.246;2023-07-29T13:38:54;24.70;99.90
23156;DHT22;11746;50.876;4.246;2023-07-29T13:41:20;24.50;99.90
23156;DHT22;11746;50.876;4.246;2023-07-29T13:43:46;24.40;99.90
23156;DHT22;11746;50.876;4.246;2023-07-29T13:46:12;24.40;99.90
23156;DHT22;11746;50.876;4.246;2023-07-29T13:48:38;24.30;99.90
23156;DHT22;11746;50.876;4.246;2023-07-29T13:51:03;24.40;99.90
23156;DHT22;11746;50.876;4.246;2023-07-29T13:53:30;24.30;99.90
23156;DHT22;11746;50.876;4.246;2023-07-29T13:55:56;24.30;99.90
23156;DHT22;11746;50.876;4.246;2023-07-29T13:58:22;24.30;99.90
23156;DHT22;11746;50.876;4.246;2023-07-29T14:00:48;24.00;99.90
23156;DHT22;11746;50.876;4.246;2023-07-29T14:03:13;24.00;99.90
23156;DHT22;11746;50.876;4.246;2023-07-29T14:05:39;24.20;99.90
23156;DHT22;11746;50.876;4.246;2023-07-29T14:08:05;24.30;99.90
23156;DHT22;11746;50.876;4.246;2023-07-29T14:10:31;24.30;99.90
23156;DHT22;11746;50.876;4.246;2023-07-29T14:12:57;24.60;99.90
23156;DHT22;11746;50.876;4.246;2023-07-29T14:15:23;25.00;99.90
23156;DHT22;11746;50.876;4.246;2023-07-29T14:17:49;25.20;99.90
23156;DHT22;11746;50.876;4.246;2023-07-29T14:20:15;25.10;99.90
23156;DHT22;11746;50.876;4.246;2023-07-29T14:22:41;24.80;99.90
23156;DHT22;11746;50.876;4.246;2023-07-29T14:25:07;24.60;99.90
23156;DHT22;11746;50.876;4.246;2023-07-29T14:27:34;24.40;99.90
23156;DHT22;11746;50.876;4.246;2023-07-29T14:29:59;24.00;99.90
23156;DHT22;11746;50.876;4.246;2023-07-29T14:32:25;24.00;99.90
23156;DHT22;11746;50.876;4.246;2023-07-29T14:34:52;23.80;99.90
23156;DHT22;11746;50.876;4.246;2023-07-29T14:37:18;23.60;99.90
23156;DHT22;11746;50.876;4.246;2023-07-29T14:39:43;23.70;99.90
23156;DHT22;11746;50.876;4.246;2023-07-29T14:42:09;23.80;99.90
23156;DHT22;11746;50.876;4.246;2023-07-29T14:44:35;23.80;99.90
23156;DHT22;11746;50.876;4.246;2023-07-29T14:47:01;23.70;99.90
23156;DHT22;11746;50.876;4.246;2023-07-29T14:49:27;23.60;99.90
23156;DHT22;11746;50.876;4.246;2023-07-29T14:51:53;23.40;99.90
23156;DHT22;11746;50.876;4.246;2023-07-29T14:54:19;23.50;99.90
23156;DHT22;11746;50.876;4.246;2023-07-29T14:56:45;23.70;99.90
23156;DHT22;11746;50.876;4.246;2023-07-29T14:59:11;23.70;99.90
23156;DHT22;11746;50.876;4.246;2023-07-29T15:01:37;23.40;99.90
23156;DHT22;11746;50.876;4.246;2023-07-29T15:04:03;23.10;99.90
23156;DHT22;11746;50.876;4.246;2023-07-29T15:06:29;22.90;99.90
23156;DHT22;11746;50.876;4.246;2023-07-29T15:08:55;22.70;99.90
23156;DHT22;11746;50.876;4.246;2023-07-29T15:11:21;22.60;99.90
23156;DHT22;11746;50.876;4.246;2023-07-29T15:13:47;22.60;99.90
23156;DHT22;11746;50.876;4.246;2023-07-29T15:16:15;22.80;99.90
23156;DHT22;11746;50.876;4.246;2023-07-29T15:18:41;22.80;99.90
23156;DHT22;11746;50.876;4.246;2023-07-29T15:21:07;22.80;99.90
23156;DHT22;11746;50.876;4.246;2023-07-29T15:23:35;22.80;99.90
23156;DHT22;11746;50.876;4.246;2023-07-29T15:26:01;22.90;99.90
23156;DHT22;11746;50.876;4.246;2023-07-29T15:28:27;23.50;99.90
23156;DHT22;11746;50.876;4.246;2023-07-29T15:30:53;23.80;99.90
23156;DHT22;11746;50.876;4.246;2023-07-29T15:33:19;23.30;99.90
23156;DHT22;11746;50.876;4.246;2023-07-29T15:35:45;23.10;99.90
23156;DHT22;11746;50.876;4.246;2023-07-29T15:38:11;22.90;99.90
23156;DHT22;11746;50.876;4.246;2023-07-29T15:40:38;23.00;99.90